Time;durP1;ratioP1;P1;durP2;ratioP2;P2;SDS_P1;SDS_P2;PMS_P1;PMS_P2;Temp;Humidity;BMP_temperature;BMP_pressure;BME280_temperature;BME280_humidity;BME280_pressure;Samples;Min_cycle;Max_cycle;Signal;HPM_P1;HPM_P2
2023/10/29 00:01:09;;;;;;;3.10;2.07;;;12.30;98.00;;;;;;5071117;28;20466;-70
2023/10/29 00:03:37;;;;;;;6.30;2.00;;;12.20;98.00;;;;;;5071207;28;20455;-70
2023/10/29 00:06:05;;;;;;;4.23;2.20;;;12.20;98.00;;;;;;5071041;28;20486;-70
2023/10/29 00:08:32;;;;;;;3.50;2.00;;;12.30;98.00;;;;;;5070909;28;20822;-70
2023/10/29 00:10:59;;;;;;;2.50;2.00;;;12.30;98.00;;;;;;5070943;28;20462;-71
2023/10/29 00:13:27;;;;;;;5.67;2.20;;;12.40;98.00;;;;;;5071192;28;20463;-70
2023/10/29 00:15:55;;;;;;;2.87;2.00;;;12.30;98.00;;;;;;5071096;28;20928;-70
2023/10/29 00:18:22;;;;;;;2.73;1.90;;;12.20;98.00;;;;;;5070797;28;20969;-70
2023/10/29 00:20:58;;;;;;;2.53;2.00;;;12.10;98.00;;;;;;5070742;28;20461;-70
2023/10/29 00:23:25;;;;;;;2.37;1.90;;;12.10;98.00;;;;;;5070825;28;20547;-70
2023/10/29 00:25:52;;;;;;;3.23;2.10;;;12.10;98.00;;;;;;5071060;28;20462;-70
2023/10/29 00:28:19;;;;;;;6.10;2.60;;;12.10;98.00;;;;;;5070884;28;20452;-70
2023/10/29 00:30:47;;;;;;;7.40;2.30;;;12.10;98.00;;;;;;5071139;28;20964;-71
2023/10/29 00:33:14;;;;;;;2.40;1.90;;;12.10;98.00;;;;;;5070773;28;20444;-70
2023/10/29 00:35:41;;;;;;;2.83;2.00;;;12.10;98.00;;;;;;5070685;28;20857;-70
2023/10/29 00:38:08;;;;;;;3.40;2.43;;;12.10;98.00;;;;;;5070812;28;20498;-70
2023/10/29 00:40:40;;;;;;;2.90;2.07;;;12.10;98.00;;;;;;5070930;28;20854;-70
2023/10/29 00:43:07;;;;;;;3.57;2.40;;;12.10;98.00;;;;;;5070907;28;20468;-70
2023/10/29 00:45:37;;;;;;;3.77;1.97;;;12.20;98.00;;;;;;5070846;28;20516;-70
2023/10/29 00:48:08;;;;;;;2.90;2.30;;;12.10;98.00;;;;;;5070628;28;20453;-70
2023/10/29 00:50:40;;;;;;;2.33;1.83;;;12.10;98.00;;;;;;5070660;28;20940;-70
2023/10/29 00:53:07;;;;;;;3.80;2.13;;;12.20;98.00;;;;;;5070525;28;21036;-70
2023/10/29 00:55:36;;;;;;;2.33;1.80;;;12.10;98.00;;;;;;5070557;28;20449;-70
2023/10/29 00:58:03;;;;;;;3.50;1.90;;;12.10;98.00;;;;;;5070833;28;20471;-70
2023/10/29 01:00:31;;;;;;;2.47;1.93;;;12.10;98.00;;;;;;5070431;28;20452;-70
2023/10/29 01:02:58;;;;;;;2.70;2.00;;;12.00;98.00;;;;;;5070511;28;20476;-70
2023/10/29 01:05:26;;;;;;;2.80;1.80;;;11.90;98.00;;;;;;5073009;28;20454;-70
2023/10/29 01:07:54;;;;;;;4.03;2.00;;;11.80;98.00;;;;;;5074313;28;20864;-70
2023/10/29 01:10:21;;;;;;;5.50;2.57;;;11.80;98.00;;;;;;5074438;28;20471;-70
2023/10/29 01:12:48;;;;;;;4.03;2.20;;;11.80;98.00;;;;;;5074154;28;20964;-70
2023/10/29 01:15:15;;;;;;;2.27;2.00;;;11.80;98.00;;;;;;5073992;28;20462;-70
2023/10/29 01:17:42;;;;;;;7.50;2.20;;;11.80;98.00;;;;;;5073868;28;20898;-70
2023/10/29 01:20:11;;;;;;;2.73;1.87;;;11.80;98.00;;;;;;5073844;28;20450;-70
2023/10/29 01:22:40;;;;;;;2.53;2.00;;;11.80;98.00;;;;;;5073914;28;20448;-70
2023/10/29 01:25:09;;;;;;;14.00;2.00;;;11.80;98.00;;;;;;5073830;28;20458;-70
2023/10/29 01:27:37;;;;;;;2.97;2.00;;;11.80;98.00;;;;;;5073896;28;20455;-70
2023/10/29 01:30:05;;;;;;;4.30;2.03;;;11.80;98.00;;;;;;5073830;28;20464;-70
2023/10/29 01:32:32;;;;;;;3.63;2.20;;;11.80;98.00;;;;;;5056231;28;20462;-70
2023/10/29 01:34:59;;;;;;;2.60;2.00;;;11.90;98.00;;;;;;5073839;28;20724;-70
2023/10/29 01:37:26;;;;;;;3.40;2.00;;;11.90;98.00;;;;;;5073505;28;20478;-70
2023/10/29 01:39:56;;;;;;;4.00;2.07;;;12.00;98.00;;;;;;5073808;28;20455;-70
2023/10/29 01:42:23;;;;;;;2.13;1.87;;;12.00;98.00;;;;;;5073708;28;20953;-70
2023/10/29 01:44:50;;;;;;;3.57;2.00;;;11.90;98.00;;;;;;5073646;28;20496;-70
2023/10/29 01:47:17;;;;;;;4.60;2.20;;;11.90;98.00;;;;;;5073614;28;20957;-70
2023/10/29 01:49:44;;;;;;;2.43;2.17;;;11.80;98.00;;;;;;5073534;28;20449;-70
2023/10/29 01:52:11;;;;;;;4.07;2.37;;;11.90;98.00;;;;;;5073460;28;20483;-70
2023/10/29 01:54:39;;;;;;;2.53;1.90;;;11.80;98.00;;;;;;5073514;28;20448;-70
2023/10/29 01:57:08;;;;;;;4.27;2.37;;;12.00;98.00;;;;;;5073232;28;20487;-71
2023/10/29 01:59:36;;;;;;;2.93;1.90;;;12.20;98.00;;;;;;5073491;28;20737;-71
2023/10/29 02:02:03;;;;;;;3.00;1.93;;;12.30;98.00;;;;;;5055763;28;20507;-70
2023/10/29 02:04:32;;;;;;;6.23;2.10;;;12.30;98.00;;;;;;5072923;28;20457;-70
2023/10/29 02:06:59;;;;;;;3.10;2.30;;;12.20;98.00;;;;;;5073068;28;20868;-70
2023/10/29 02:09:26;;;;;;;3.20;2.20;;;12.10;98.00;;;;;;5072908;28;20448;-70
2023/10/29 02:11:53;;;;;;;3.87;2.10;;;11.90;98.00;;;;;;5073063;28;20517;-70
2023/10/29 02:14:21;;;;;;;3.60;2.20;;;11.90;98.00;;;;;;5073028;28;20950;-70
2023/10/29 02:16:49;;;;;;;3.50;2.30;;;11.90;98.00;;;;;;5072367;28;20490;-70
2023/10/29 02:19:16;;;;;;;3.13;1.80;;;11.90;98.00;;;;;;5073015;28;20856;-70
2023/10/29 02:21:43;;;;;;;3.77;2.20;;;11.80;98.00;;;;;;5073048;28;20456;-70
2023/10/29 02:24:12;;;;;;;7.00;2.23;;;11.70;98.00;;;;;;5073302;28;20854;-70
2023/10/29 02:26:39;;;;;;;2.80;2.00;;;11.60;98.00;;;;;;5073045;28;20478;-70
2023/10/29 02:29:06;;;;;;;2.10;1.90;;;11.50;98.00;;;;;;5072540;28;20449;-70
2023/10/29 02:31:33;;;;;;;2.70;2.00;;;11.40;98.00;;;;;;5072650;28;20454;-70
2023/10/29 02:34:00;;;;;;;3.10;2.00;;;11.40;98.00;;;;;;5072610;28;20947;-70
2023/10/29 02:36:28;;;;;;;3.63;2.13;;;11.30;98.00;;;;;;5072653;28;20455;-70
2023/10/29 02:38:56;;;;;;;7.10;2.73;;;11.30;98.00;;;;;;5052774;28;20458;-70
2023/10/29 02:41:25;;;;;;;6.00;2.13;;;11.40;98.00;;;;;;5072875;28;20962;-70
2023/10/29 02:43:53;;;;;;;3.00;2.13;;;11.30;98.00;;;;;;5072386;28;20846;-70
2023/10/29 02:46:20;;;;;;;3.77;2.03;;;11.30;98.00;;;;;;5072308;28;20485;-70
2023/10/29 02:48:47;;;;;;;2.90;2.10;;;11.30;98.00;;;;;;5072447;28;20543;-70
2023/10/29 02:51:14;;;;;;;2.60;1.80;;;11.30;98.00;;;;;;5072026;28;20469;-70
2023/10/29 02:53:41;;;;;;;3.20;2.00;;;11.20;98.00;;;;;;5072026;28;20446;-70
2023/10/29 02:56:08;;;;;;;4.70;2.10;;;11.20;98.00;;;;;;5072146;28;20464;-70
2023/10/29 02:58:37;;;;;;;2.37;2.00;;;11.20;98.00;;;;;;5072231;28;20552;-70
2023/10/29 03:01:05;;;;;;;7.70;2.00;;;11.20;98.00;;;;;;5071977;28;20459;-70
2023/10/29 03:03:32;;;;;;;4.33;2.40;;;11.10;98.00;;;;;;5072067;28;20541;-70
2023/10/29 03:06:03;;;;;;;3.03;1.90;;;11.00;98.00;;;;;;5053934;28;20448;-70
2023/10/29 03:08:30;;;;;;;2.57;1.70;;;11.00;98.00;;;;;;5071805;28;20454;-70
2023/10/29 03:10:57;;;;;;;2.03;1.70;;;10.90;98.00;;;;;;5071670;28;20464;-70
2023/10/29 03:13:24;;;;;;;2.60;1.83;;;10.90;98.00;;;;;;5071690;28;20463;-70
2023/10/29 03:15:52;;;;;;;2.30;1.73;;;10.80;98.00;;;;;;5071986;28;20455;-70
2023/10/29 03:18:21;;;;;;;2.50;1.80;;;10.80;98.00;;;;;;5071507;28;20506;-70
2023/10/29 03:20:48;;;;;;;7.73;2.00;;;10.80;98.00;;;;;;5053487;28;20542;-70
2023/10/29 03:23:15;;;;;;;4.13;2.07;;;10.70;98.00;;;;;;5071681;28;20965;-70
2023/10/29 03:25:44;;;;;;;3.27;1.80;;;10.60;98.00;;;;;;5090717;28;20450;-70
2023/10/29 03:28:12;;;;;;;3.93;2.03;;;10.60;98.00;;;;;;5090975;28;20453;-70
2023/10/29 03:30:39;;;;;;;2.10;1.80;;;10.40;98.00;;;;;;5091655;28;20454;-70
2023/10/29 03:33:07;;;;;;;2.00;1.60;;;10.40;98.00;;;;;;5073572;28;20488;-70
2023/10/29 03:35:34;;;;;;;4.70;1.93;;;10.40;98.00;;;;;;5091403;28;20457;-70
2023/10/29 03:38:02;;;;;;;2.00;1.60;;;10.40;98.00;;;;;;5091602;28;20475;-70
2023/10/29 03:40:29;;;;;;;4.90;1.60;;;10.40;98.00;;;;;;5090769;28;20467;-70
2023/10/29 03:42:56;;;;;;;5.20;1.90;;;10.50;98.00;;;;;;5091657;28;20447;-70
2023/10/29 03:45:23;;;;;;;3.00;1.50;;;10.50;98.00;;;;;;5091485;28;20451;-70
2023/10/29 03:47:50;;;;;;;1.83;1.40;;;10.50;98.00;;;;;;5091434;28;20873;-70
2023/10/29 03:50:20;;;;;;;2.60;1.70;;;10.60;98.00;;;;;;5091173;28;20447;-70
2023/10/29 03:52:47;;;;;;;2.53;1.93;;;10.60;98.00;;;;;;5091634;28;20468;-70
2023/10/29 03:55:14;;;;;;;5.13;1.80;;;10.60;98.00;;;;;;5091634;28;20446;-70
2023/10/29 03:57:42;;;;;;;2.07;1.60;;;10.40;98.00;;;;;;5073717;28;20700;-70
2023/10/29 04:00:10;;;;;;;4.17;1.67;;;10.50;98.00;;;;;;5073740;28;20494;-70
2023/10/29 04:02:37;;;;;;;3.50;1.97;;;10.60;98.00;;;;;;5091625;28;20874;-70
2023/10/29 04:05:05;;;;;;;5.00;1.60;;;10.40;98.00;;;;;;5091556;28;20840;-70
2023/10/29 04:07:33;;;;;;;2.83;2.07;;;10.30;98.00;;;;;;5091677;28;20454;-70
2023/10/29 04:10:00;;;;;;;2.30;1.53;;;10.40;98.00;;;;;;5091191;28;20453;-70
2023/10/29 04:12:28;;;;;;;3.03;2.10;;;10.40;98.00;;;;;;5091251;28;20987;-70
2023/10/29 04:14:55;;;;;;;3.23;1.70;;;10.40;98.00;;;;;;5091327;28;20517;-70
2023/10/29 04:17:22;;;;;;;2.10;1.70;;;10.40;98.00;;;;;;5091058;28;20478;-70
2023/10/29 04:19:49;;;;;;;3.17;1.57;;;10.40;98.00;;;;;;5090973;28;20493;-70
2023/10/29 04:22:18;;;;;;;3.43;2.00;;;10.60;98.00;;;;;;5091285;28;20477;-70
2023/10/29 04:24:47;;;;;;;1.73;1.50;;;10.40;98.00;;;;;;5090928;28;20490;-70
2023/10/29 04:27:14;;;;;;;2.90;1.60;;;10.60;98.00;;;;;;5091030;28;20942;-70
2023/10/29 04:29:41;;;;;;;2.20;1.53;;;10.60;98.00;;;;;;5090732;28;20473;-70
2023/10/29 04:32:08;;;;;;;2.47;1.67;;;10.50;98.00;;;;;;5091132;28;20461;-70
2023/10/29 04:34:35;;;;;;;2.47;1.90;;;10.50;98.00;;;;;;5090822;28;20479;-70
2023/10/29 04:37:02;;;;;;;2.50;2.00;;;10.60;98.00;;;;;;5073190;28;20449;-70
2023/10/29 04:39:30;;;;;;;5.17;2.10;;;10.50;98.00;;;;;;5093974;28;20460;-70
2023/10/29 04:41:58;;;;;;;3.27;1.80;;;10.40;98.00;;;;;;5095158;28;20814;-70
2023/10/29 04:44:27;;;;;;;3.97;1.80;;;10.30;98.00;;;;;;5094920;28;20450;-70
2023/10/29 04:46:54;;;;;;;1.87;1.57;;;10.40;98.00;;;;;;5094903;28;20453;-70
2023/10/29 04:49:21;;;;;;;4.10;2.80;;;10.40;98.00;;;;;;5094682;28;20824;-70
2023/10/29 04:51:48;;;;;;;2.53;1.70;;;10.40;98.00;;;;;;5094747;28;20955;-70
2023/10/29 04:54:15;;;;;;;1.47;1.40;;;10.60;98.00;;;;;;5094932;28;20454;-70
2023/10/29 04:56:42;;;;;;;2.10;1.60;;;10.50;98.00;;;;;;5077117;28;20445;-70
2023/10/29 04:59:14;;;;;;;2.67;1.50;;;10.50;98.00;;;;;;5094495;28;20480;-70
2023/10/29 05:01:41;;;;;;;2.63;1.60;;;10.60;98.00;;;;;;5075803;28;20515;-70
2023/10/29 05:04:08;;;;;;;2.33;1.80;;;10.60;98.00;;;;;;5076762;28;20461;-70
2023/10/29 05:06:35;;;;;;;6.90;1.70;;;10.70;98.00;;;;;;5094477;28;20454;-69
2023/10/29 05:09:02;;;;;;;3.00;1.80;;;10.80;98.00;;;;;;5094268;28;20458;-70
2023/10/29 05:11:31;;;;;;;4.43;2.23;;;10.70;98.00;;;;;;5094265;28;20458;-70
2023/10/29 05:13:58;;;;;;;2.40;1.80;;;10.70;98.00;;;;;;5094512;28;20489;-70
2023/10/29 05:16:26;;;;;;;4.10;2.13;;;10.60;98.00;;;;;;5094295;28;20457;-70
2023/10/29 05:18:53;;;;;;;3.33;2.00;;;10.60;98.00;;;;;;5094142;28;20489;-70
2023/10/29 05:21:21;;;;;;;3.53;1.90;;;10.70;98.00;;;;;;5094235;28;20453;-70
2023/10/29 05:23:48;;;;;;;2.43;2.10;;;10.70;98.00;;;;;;5094263;28;20461;-70
2023/10/29 05:26:15;;;;;;;4.30;2.10;;;10.60;98.00;;;;;;5094189;28;20449;-70
2023/10/29 05:28:42;;;;;;;2.50;1.63;;;10.70;98.00;;;;;;5094023;28;20449;-70
2023/10/29 05:31:09;;;;;;;1.70;1.50;;;10.70;98.00;;;;;;5094155;28;20471;-70
2023/10/29 05:33:38;;;;;;;2.23;1.70;;;10.80;98.00;;;;;;5094009;28;20449;-70
2023/10/29 05:36:06;;;;;;;3.63;1.93;;;10.80;98.00;;;;;;5094255;28;20477;-70
2023/10/29 05:38:33;;;;;;;2.03;1.77;;;10.80;98.00;;;;;;5093800;28;20491;-70
2023/10/29 05:41:00;;;;;;;3.17;2.00;;;10.80;98.00;;;;;;5093866;28;20450;-69
2023/10/29 05:43:27;;;;;;;2.60;1.60;;;10.80;98.00;;;;;;5093768;28;20455;-69
2023/10/29 05:45:54;;;;;;;3.30;1.90;;;10.80;98.00;;;;;;5093881;28;20449;-69
2023/10/29 05:48:21;;;;;;;2.10;1.80;;;10.90;98.00;;;;;;5093704;28;20459;-69
2023/10/29 05:50:50;;;;;;;3.50;1.90;;;10.90;98.00;;;;;;5092648;28;20822;-69
2023/10/29 05:53:17;;;;;;;2.77;1.87;;;10.80;98.00;;;;;;5093716;28;20459;-69
2023/10/29 05:55:44;;;;;;;3.20;1.80;;;10.90;98.00;;;;;;5093923;28;20452;-70
2023/10/29 05:58:11;;;;;;;2.17;1.77;;;10.90;98.00;;;;;;5075908;28;20514;-62
2023/10/29 06:00:38;;;;;;;3.10;2.20;;;10.90;98.00;;;;;;5093461;28;20970;-62
2023/10/29 06:03:05;;;;;;;3.40;2.17;;;10.90;98.00;;;;;;5093740;28;20459;-62
2023/10/29 06:05:32;;;;;;;3.03;1.80;;;11.00;98.00;;;;;;5093614;28;20533;-62
2023/10/29 06:08:03;;;;;;;2.63;1.90;;;11.10;98.00;;;;;;5093615;28;20511;-62
2023/10/29 06:10:30;;;;;;;3.73;2.00;;;11.20;98.00;;;;;;5093179;28;20532;-63
2023/10/29 06:12:59;;;;;;;2.80;2.10;;;11.20;98.00;;;;;;5093424;28;20455;-62
2023/10/29 06:15:27;;;;;;;3.70;2.30;;;11.20;98.00;;;;;;5076013;28;20449;-62
2023/10/29 06:17:55;;;;;;;2.60;2.00;;;11.10;98.00;;;;;;5093277;28;20490;-62
2023/10/29 06:20:23;;;;;;;4.17;1.93;;;11.00;98.00;;;;;;5075457;28;20517;-62
2023/10/29 06:22:50;;;;;;;2.50;1.90;;;10.90;98.00;;;;;;5093267;28;20824;-62
2023/10/29 06:25:19;;;;;;;4.30;2.80;;;11.00;98.00;;;;;;5093112;28;20447;-62
2023/10/29 06:27:46;;;;;;;5.30;2.73;;;11.00;98.00;;;;;;5092900;28;20975;-62
2023/10/29 06:30:14;;;;;;;3.13;2.07;;;11.10;98.00;;;;;;5093219;28;20465;-63
2023/10/29 06:32:41;;;;;;;6.87;1.90;;;11.10;98.00;;;;;;5092995;28;20551;-63
2023/10/29 06:35:09;;;;;;;2.57;1.80;;;11.20;98.00;;;;;;5092895;28;20452;-62
2023/10/29 06:37:36;;;;;;;2.77;2.00;;;11.30;98.00;;;;;;5075243;28;20452;-63
2023/10/29 06:40:03;;;;;;;2.53;1.80;;;11.30;98.00;;;;;;5092661;28;20459;-62
2023/10/29 06:42:32;;;;;;;35.60;12.63;;;11.50;98.00;;;;;;5092807;28;21024;-62
2023/10/29 06:44:59;;;;;;;4.40;2.60;;;11.50;98.00;;;;;;5092394;28;20447;-63
2023/10/29 06:47:26;;;;;;;2.60;2.00;;;11.60;98.00;;;;;;5092904;28;20815;-63
2023/10/29 06:49:55;;;;;;;4.90;2.20;;;11.60;98.00;;;;;;5092895;28;20462;-62
2023/10/29 06:52:22;;;;;;;9.43;2.30;;;11.50;98.00;;;;;;5092696;28;20455;-62
2023/10/29 06:54:49;;;;;;;2.33;1.87;;;11.40;98.00;;;;;;5092695;28;20506;-62
2023/10/29 06:57:16;;;;;;;5.83;2.30;;;11.40;98.00;;;;;;5092608;28;20499;-62
2023/10/29 06:59:46;;;;;;;4.70;2.70;;;11.40;98.00;;;;;;5092409;28;21043;-63
2023/10/29 07:02:13;;;;;;;5.77;3.40;;;11.40;98.00;;;;;;5074241;28;20996;-62
2023/10/29 07:04:41;;;;;;;3.63;2.43;;;11.40;98.00;;;;;;5092326;28;20450;-62
2023/10/29 07:07:11;;;;;;;4.83;2.20;;;11.60;98.00;;;;;;5092471;28;20477;-62
2023/10/29 07:09:38;;;;;;;2.40;1.97;;;11.50;98.00;;;;;;5092177;28;20457;-62
2023/10/29 07:12:05;;;;;;;2.70;2.10;;;11.40;98.00;;;;;;5092260;28;20510;-62
2023/10/29 07:14:33;;;;;;;3.33;2.13;;;11.40;98.00;;;;;;5092079;28;20579;-63
2023/10/29 07:17:01;;;;;;;2.53;1.97;;;11.40;98.00;;;;;;5092238;28;20493;-62
2023/10/29 07:19:28;;;;;;;2.53;1.87;;;11.50;98.00;;;;;;5092185;28;20480;-62
2023/10/29 07:21:55;;;;;;;4.60;2.20;;;11.50;98.00;;;;;;5092364;28;20452;-62
2023/10/29 07:24:22;;;;;;;3.00;2.10;;;11.50;98.00;;;;;;5092225;28;20466;-62
2023/10/29 07:26:50;;;;;;;3.23;2.00;;;11.50;98.00;;;;;;5092413;28;20510;-62
2023/10/29 07:29:17;;;;;;;2.83;2.20;;;11.50;98.00;;;;;;5091829;28;20504;-63
2023/10/29 07:31:44;;;;;;;4.70;2.00;;;11.60;98.00;;;;;;5091986;28;20454;-62
2023/10/29 07:34:13;;;;;;;2.90;2.23;;;11.60;98.00;;;;;;5074158;28;20791;-62
2023/10/29 07:36:40;;;;;;;3.13;2.20;;;11.70;98.00;;;;;;5091963;28;20456;-62
2023/10/29 07:39:07;;;;;;;4.50;2.17;;;11.70;98.00;;;;;;5074045;28;20523;-62
2023/10/29 07:41:34;;;;;;;4.47;2.47;;;11.80;98.00;;;;;;5091823;28;20922;-62
2023/10/29 07:44:01;;;;;;;3.30;2.20;;;11.90;98.00;;;;;;5092055;28;20455;-62
2023/10/29 07:46:28;;;;;;;4.20;2.17;;;12.00;98.00;;;;;;5091223;28;20519;-62
2023/10/29 07:48:55;;;;;;;4.40;2.10;;;12.20;98.00;;;;;;5091567;28;20460;-62
2023/10/29 07:51:24;;;;;;;7.07;3.10;;;12.30;98.00;;;;;;5091691;28;20529;-62
2023/10/29 07:53:51;;;;;;;4.70;2.77;;;12.40;98.00;;;;;;5091613;28;20459;-62
2023/10/29 07:56:19;;;;;;;3.63;2.53;;;12.40;98.00;;;;;;5091699;28;20461;-62
2023/10/29 07:58:46;;;;;;;4.97;2.10;;;12.30;98.00;;;;;;5091387;28;20498;-63
2023/10/29 08:01:16;;;;;;;3.00;2.10;;;12.20;98.00;;;;;;5091545;28;20547;-62
2023/10/29 08:03:44;;;;;;;4.40;2.67;;;12.20;98.00;;;;;;5091408;28;20461;-62
2023/10/29 08:06:12;;;;;;;3.87;2.27;;;12.20;98.00;;;;;;5091449;28;20518;-62
2023/10/29 08:08:40;;;;;;;2.90;2.10;;;12.20;98.00;;;;;;5091364;28;20462;-62
2023/10/29 08:11:08;;;;;;;3.17;2.10;;;12.20;98.00;;;;;;5091075;28;20524;-62
2023/10/29 08:13:35;;;;;;;4.43;2.27;;;12.20;98.00;;;;;;5091009;28;20816;-62
2023/10/29 08:16:04;;;;;;;3.37;2.30;;;12.20;98.00;;;;;;5091240;28;20454;-62
2023/10/29 08:18:31;;;;;;;3.20;2.67;;;12.20;98.00;;;;;;5091148;28;20977;-62
2023/10/29 08:20:58;;;;;;;4.57;2.67;;;12.20;98.00;;;;;;5091129;28;20457;-62
2023/10/29 08:23:25;;;;;;;3.90;2.47;;;12.40;98.00;;;;;;5091236;28;20456;-62
2023/10/29 08:25:55;;;;;;;5.33;2.70;;;12.30;98.00;;;;;;5073335;28;20458;-62
2023/10/29 08:28:25;;;;;;;3.80;2.60;;;12.40;98.00;;;;;;5091492;28;20743;-63
2023/10/29 08:30:52;;;;;;;4.27;2.70;;;12.50;98.00;;;;;;5072846;28;20801;-62
2023/10/29 08:33:19;;;;;;;3.70;2.50;;;12.40;98.00;;;;;;5091438;28;20447;-63
2023/10/29 08:35:46;;;;;;;7.07;3.00;;;12.60;98.00;;;;;;5063626;28;20498;-63
2023/10/29 08:38:13;;;;;;;4.60;2.87;;;12.60;98.00;;;;;;5070736;28;20461;-62
2023/10/29 08:40:40;;;;;;;4.30;2.63;;;12.60;98.00;;;;;;5076753;28;20444;-62
2023/10/29 08:43:09;;;;;;;7.07;3.63;;;12.70;98.00;;;;;;5090794;28;20458;-63
2023/10/29 08:45:36;;;;;;;5.80;3.00;;;12.70;98.00;;;;;;5091016;28;20998;-63
2023/10/29 08:48:03;;;;;;;5.10;2.70;;;12.70;98.00;;;;;;5091007;28;20478;-62
2023/10/29 08:50:30;;;;;;;4.70;3.10;;;12.70;98.00;;;;;;5090866;28;20451;-63
2023/10/29 08:52:57;;;;;;;6.13;3.00;;;12.70;98.00;;;;;;5090893;28;20452;-63
2023/10/29 08:55:24;;;;;;;5.17;2.87;;;12.70;98.00;;;;;;5082127;28;20950;-62
2023/10/29 08:57:52;;;;;;;3.43;2.23;;;12.80;98.00;;;;;;5070809;28;20449;-63
2023/10/29 09:00:21;;;;;;;4.77;2.43;;;12.90;98.00;;;;;;5070266;28;20546;-62
2023/10/29 09:02:48;;;;;;;11.30;2.50;;;13.00;98.00;;;;;;5070860;28;20502;-63
2023/10/29 09:05:15;;;;;;;2.93;2.17;;;13.10;98.00;;;;;;5070717;28;20459;-63
2023/10/29 09:07:42;;;;;;;4.50;2.50;;;13.20;98.00;;;;;;5071002;28;20870;-62
2023/10/29 09:10:10;;;;;;;4.80;2.70;;;13.30;98.00;;;;;;5052742;28;20478;-63
2023/10/29 09:12:37;;;;;;;3.53;2.33;;;13.40;98.00;;;;;;5049179;28;20480;-63
2023/10/29 09:15:06;;;;;;;4.90;2.30;;;13.50;98.00;;;;;;5068357;28;20501;-63
2023/10/29 09:17:38;;;;;;;4.77;2.40;;;13.60;98.00;;;;;;5029206;28;20468;-63
2023/10/29 09:20:06;;;;;;;3.47;2.60;;;13.70;98.00;;;;;;5005433;28;20493;-63
2023/10/29 09:22:33;;;;;;;3.53;2.63;;;13.80;98.00;;;;;;4918045;28;20480;-63
2023/10/29 09:25:00;;;;;;;4.17;2.80;;;13.80;98.00;;;;;;4842710;29;20689;-63
2023/10/29 09:27:27;;;;;;;3.10;2.20;;;13.90;98.00;;;;;;4883660;29;20567;-63
2023/10/29 09:38:07;;;;;;;5.93;2.80;;;14.10;98.00;;;;;;5099276;27;1394230;-62
2023/10/29 09:40:35;;;;;;;4.57;2.77;;;14.30;98.00;;;;;;5128422;28;20207;-62
2023/10/29 09:43:04;;;;;;;5.17;2.70;;;14.30;98.00;;;;;;5110767;28;20449;-62
2023/10/29 09:45:33;;;;;;;5.77;2.20;;;14.40;98.00;;;;;;5108759;28;20762;-62
2023/10/29 09:48:00;;;;;;;3.40;2.07;;;14.40;98.00;;;;;;5108833;28;20554;-62
2023/10/29 09:50:27;;;;;;;2.80;1.90;;;14.50;98.00;;;;;;5109169;28;20928;-62
2023/10/29 09:52:55;;;;;;;2.47;2.00;;;14.50;98.00;;;;;;5129173;28;20514;-62
2023/10/29 09:55:23;;;;;;;4.57;2.17;;;14.50;98.00;;;;;;5129069;28;20725;-62
2023/10/29 09:57:54;;;;;;;2.33;2.07;;;14.50;98.00;;;;;;5129057;28;20813;-62
2023/10/29 10:00:21;;;;;;;4.53;2.17;;;14.60;98.00;;;;;;5129008;28;20857;-62
2023/10/29 10:02:53;;;;;;;4.60;2.53;;;14.60;98.00;;;;;;5128239;28;20449;-62
2023/10/29 10:05:23;;;;;;;3.03;2.20;;;14.60;98.00;;;;;;5110940;28;20449;-62
2023/10/29 10:07:52;;;;;;;4.20;2.43;;;14.70;98.00;;;;;;5128619;28;20464;-62
2023/10/29 10:10:37;;;;;;;4.80;2.97;;;14.80;98.00;;;;;;5128702;28;20547;-62
2023/10/29 10:13:05;;;;;;;6.63;3.57;;;14.90;98.00;;;;;;5128883;28;20487;-62
2023/10/29 10:15:32;;;;;;;5.27;3.27;;;14.80;98.00;;;;;;5128391;28;20884;-62
2023/10/29 10:18:00;;;;;;;5.00;3.20;;;14.80;98.00;;;;;;5128548;28;21052;-62
2023/10/29 10:20:28;;;;;;;7.13;3.43;;;14.80;98.00;;;;;;5128595;28;20453;-62
2023/10/29 10:22:59;;;;;;;6.07;3.40;;;14.80;98.00;;;;;;5128410;28;20460;-62
2023/10/29 10:25:28;;;;;;;4.60;3.00;;;14.80;98.00;;;;;;5128512;28;20477;-62
2023/10/29 10:27:57;;;;;;;5.40;2.93;;;14.90;98.00;;;;;;5128577;28;20456;-62
2023/10/29 10:30:31;;;;;;;4.47;3.00;;;15.00;98.00;;;;;;5128230;28;21054;-62
2023/10/29 10:33:14;;;;;;;4.20;2.63;;;15.10;98.00;;;;;;5128414;28;20478;-62
2023/10/29 10:35:50;;;;;;;7.33;3.37;;;15.20;98.00;;;;;;5128258;28;21014;-63
2023/10/29 10:38:20;;;;;;;5.00;3.17;;;15.20;98.00;;;;;;5127840;28;20453;-62
2023/10/29 10:40:56;;;;;;;4.23;2.70;;;15.20;98.00;;;;;;5128008;28;20503;-62
2023/10/29 10:43:24;;;;;;;3.70;2.83;;;15.20;98.00;;;;;;5094385;28;20939;-62
2023/10/29 10:45:52;;;;;;;6.03;3.50;;;15.30;98.00;;;;;;5128095;28;21002;-62
2023/10/29 10:48:19;;;;;;;6.00;3.50;;;15.30;98.00;;;;;;5120827;28;20469;-62
2023/10/29 10:50:47;;;;;;;5.53;3.60;;;15.30;98.00;;;;;;5114413;28;20545;-62
2023/10/29 10:53:15;;;;;;;7.77;3.60;;;15.40;98.00;;;;;;5114540;28;20941;-62
2023/10/29 10:55:44;;;;;;;5.53;3.20;;;15.50;98.00;;;;;;5114336;28;20450;-62
2023/10/29 10:58:14;;;;;;;4.87;3.07;;;15.60;98.00;;;;;;5114354;28;21010;-62
2023/10/29 11:00:41;;;;;;;5.43;3.00;;;15.70;98.00;;;;;;5114041;28;20454;-62
2023/10/29 11:03:12;;;;;;;4.87;3.10;;;15.80;98.00;;;;;;5114374;28;20459;-62
2023/10/29 11:05:41;;;;;;;4.60;3.23;;;15.70;98.00;;;;;;5114152;28;20459;-62
2023/10/29 11:08:09;;;;;;;6.27;3.20;;;15.70;98.00;;;;;;5114196;28;20733;-62
2023/10/29 11:10:36;;;;;;;5.20;3.00;;;15.70;98.00;;;;;;5113814;28;20447;-62
2023/10/29 11:13:20;;;;;;;8.37;3.00;;;15.60;98.00;;;;;;5114039;28;20503;-61
2023/10/29 11:15:47;;;;;;;4.47;2.93;;;15.60;98.00;;;;;;5113898;28;20458;-61
2023/10/29 11:18:14;;;;;;;6.73;3.30;;;15.50;98.00;;;;;;5113788;28;20521;-62
2023/10/29 11:21:01;;;;;;;5.20;2.90;;;15.50;98.00;;;;;;5113710;28;20450;-62
2023/10/29 11:23:29;;;;;;;6.37;3.23;;;15.50;98.00;;;;;;5113324;28;20819;-62
2023/10/29 11:26:28;;;;;;;5.00;3.00;;;15.60;98.00;;;;;;5113598;28;20450;-61
2023/10/29 11:28:56;;;;;;;5.17;2.97;;;15.60;98.00;;;;;;5113218;28;20458;-62
2023/10/29 11:31:25;;;;;;;4.87;3.40;;;15.70;98.00;;;;;;5113594;28;20439;-62
2023/10/29 11:34:25;;;;;;;5.10;2.93;;;15.70;98.00;;;;;;5095723;28;20454;-62
2023/10/29 11:36:52;;;;;;;5.20;2.80;;;15.80;98.00;;;;;;5112964;28;20847;-62
2023/10/29 11:39:40;;;;;;;4.53;3.20;;;15.90;98.00;;;;;;5095179;28;20455;-62
2023/10/29 11:42:26;;;;;;;4.17;2.93;;;15.90;98.00;;;;;;5106868;28;20556;-62
2023/10/29 11:45:27;;;;;;;5.93;3.13;;;16.00;98.00;;;;;;5113252;28;20936;-62
2023/10/29 11:48:21;;;;;;;4.60;2.60;;;16.00;98.00;;;;;;5113527;28;20479;-62
2023/10/29 11:51:19;;;;;;;3.00;2.03;;;16.00;98.00;;;;;;5112895;28;20980;-62
2023/10/29 11:53:47;;;;;;;3.20;1.90;;;16.20;98.00;;;;;;5112784;28;20447;-62
2023/10/29 11:56:16;;;;;;;3.67;2.30;;;16.40;98.00;;;;;;5112969;28;21009;-62
2023/10/29 11:58:44;;;;;;;3.40;2.00;;;16.50;98.00;;;;;;5095233;28;20470;-62
2023/10/29 12:01:18;;;;;;;2.30;1.70;;;16.70;98.00;;;;;;5112173;28;20458;-62
2023/10/29 12:03:52;;;;;;;4.10;2.17;;;17.00;98.00;;;;;;5113082;28;20543;-62
2023/10/29 12:06:19;;;;;;;3.73;1.90;;;17.10;98.00;;;;;;5112878;28;20447;-62
2023/10/29 12:08:46;;;;;;;3.40;2.20;;;17.30;98.00;;;;;;5112790;28;20486;-62
2023/10/29 12:11:14;;;;;;;4.57;3.13;;;17.50;98.00;;;;;;5112957;28;20447;-62
2023/10/29 12:13:44;;;;;;;4.93;2.90;;;17.60;98.00;;;;;;5112835;28;20451;-62
2023/10/29 12:16:12;;;;;;;4.63;3.17;;;17.70;98.00;;;;;;5112809;28;20968;-62
2023/10/29 12:18:40;;;;;;;5.30;3.10;;;17.80;98.00;;;;;;5112819;28;20509;-62
2023/10/29 12:21:11;;;;;;;4.80;3.30;;;17.90;98.00;;;;;;5112455;28;20810;-62
2023/10/29 12:23:38;;;;;;;7.40;3.20;;;17.80;98.00;;;;;;5094715;28;20847;-62
2023/10/29 12:26:07;;;;;;;5.13;3.17;;;17.80;98.00;;;;;;5097962;28;20469;-62
2023/10/29 12:28:35;;;;;;;4.20;2.70;;;18.00;98.00;;;;;;5092438;28;20476;-62
2023/10/29 12:31:03;;;;;;;4.23;2.30;;;18.30;98.00;;;;;;5092256;28;20459;-62
2023/10/29 12:33:33;;;;;;;2.90;2.30;;;18.50;98.00;;;;;;5074353;28;20448;-62
2023/10/29 12:36:01;;;;;;;4.50;2.80;;;18.70;98.00;;;;;;5091930;28;20448;-62
2023/10/29 12:38:29;;;;;;;2.70;2.00;;;19.00;98.00;;;;;;5092024;28;20491;-62
2023/10/29 12:41:11;;;;;;;3.10;2.27;;;19.30;98.00;;;;;;5096599;28;20443;-61
2023/10/29 12:43:40;;;;;;;4.50;2.10;;;19.40;98.00;;;;;;5094376;28;20447;-62
2023/10/29 12:46:09;;;;;;;2.53;1.80;;;19.50;98.00;;;;;;5112228;28;20846;-62
2023/10/29 12:48:55;;;;;;;2.10;1.80;;;19.50;98.00;;;;;;5112168;28;20828;-62
2023/10/29 12:51:24;;;;;;;2.20;1.50;;;19.40;98.00;;;;;;5112046;28;21009;-62
2023/10/29 12:53:52;;;;;;;1.43;1.40;;;19.40;98.00;;;;;;5112077;28;20491;-62
2023/10/29 12:56:19;;;;;;;1.73;1.60;;;19.40;98.00;;;;;;5111903;28;20457;-62
2023/10/29 12:58:46;;;;;;;2.67;1.80;;;19.40;98.00;;;;;;5111886;28;20483;-62
2023/10/29 13:01:13;;;;;;;1.87;1.50;;;19.40;98.00;;;;;;5093920;28;20442;-62